sensor_id;sensor_type;location;lat;lon;timestamp;P1;durP1;ratioP1;P2;durP2;ratioP2
4642;SDS011;2334;48.710;9.622;2023-07-28T00:02:05;3.40;;;2.00;;
4642;SDS011;2334;48.710;9.622;2023-07-28T00:04:33;4.13;;;3.67;;
4642;SDS011;2334;48.710;9.622;2023-07-28T00:07:01;4.00;;;3.30;;
4642;SDS011;2334;48.710;9.622;2023-07-28T00:09:28;5.53;;;3.30;;
4642;SDS011;2334;48.710;9.622;2023-07-28T00:11:56;4.43;;;3.30;;
4642;SDS011;2334;48.710;9.622;2023-07-28T00:14:23;3.57;;;3.27;;
4642;SDS011;2334;48.710;9.622;2023-07-28T00:16:51;5.93;;;3.20;;
4642;SDS011;2334;48.710;9.622;2023-07-28T00:19:19;3.50;;;3.20;;
4642;SDS011;2334;48.710;9.622;2023-07-28T00:21:47;5.80;;;3.10;;
4642;SDS011;2334;48.710;9.622;2023-07-28T00:24:14;3.53;;;2.80;;
4642;SDS011;2334;48.710;9.622;2023-07-28T00:26:41;3.27;;;2.70;;
4642;SDS011;2334;48.710;9.622;2023-07-28T00:29:08;3.77;;;3.20;;
4642;SDS011;2334;48.710;9.622;2023-07-28T00:31:35;4.80;;;3.37;;
4642;SDS011;2334;48.710;9.622;2023-07-28T00:34:02;5.93;;;3.10;;
4642;SDS011;2334;48.710;9.622;2023-07-28T00:36:31;14.63;;;3.67;;
4642;SDS011;2334;48.710;9.622;2023-07-28T00:38:58;12.10;;;3.70;;
4642;SDS011;2334;48.710;9.622;2023-07-28T00:41:25;4.47;;;2.70;;
4642;SDS011;2334;48.710;9.622;2023-07-28T00:43:52;5.83;;;3.20;;
4642;SDS011;2334;48.710;9.622;2023-07-28T00:46:18;2.40;;;2.20;;
4642;SDS011;2334;48.710;9.622;2023-07-28T00:48:46;5.10;;;3.00;;
4642;SDS011;2334;48.710;9.622;2023-07-28T00:51:13;3.10;;;2.77;;
4642;SDS011;2334;48.710;9.622;2023-07-28T00:53:41;5.70;;;3.17;;
4642;SDS011;2334;48.710;9.622;2023-07-28T00:56:09;2.83;;;2.70;;
4642;SDS011;2334;48.710;9.622;2023-07-28T00:58:37;3.40;;;3.00;;
4642;SDS011;2334;48.710;9.622;2023-07-28T01:01:03;2.90;;;2.40;;
4642;SDS011;2334;48.710;9.622;2023-07-28T01:03:30;3.77;;;3.47;;
4642;SDS011;2334;48.710;9.622;2023-07-28T01:06:02;2.10;;;2.00;;
4642;SDS011;2334;48.710;9.622;2023-07-28T01:08:38;3.20;;;2.50;;
4642;SDS011;2334;48.710;9.622;2023-07-28T01:11:12;3.10;;;2.67;;
4642;SDS011;2334;48.710;9.622;2023-07-28T01:13:39;4.40;;;2.80;;
4642;SDS011;2334;48.710;9.622;2023-07-28T01:16:06;4.13;;;2.50;;
4642;SDS011;2334;48.710;9.622;2023-07-28T01:18:35;3.57;;;3.00;;
4642;SDS011;2334;48.710;9.622;2023-07-28T01:21:03;3.80;;;3.10;;
4642;SDS011;2334;48.710;9.622;2023-07-28T01:23:36;7.50;;;3.50;;
4642;SDS011;2334;48.710;9.622;2023-07-28T01:26:10;4.87;;;3.13;;
4642;SDS011;2334;48.710;9.622;2023-07-28T01:28:39;5.43;;;3.40;;
4642;SDS011;2334;48.710;9.622;2023-07-28T01:31:07;3.33;;;3.03;;
4642;SDS011;2334;48.710;9.622;2023-07-28T01:33:35;7.10;;;3.60;;
4642;SDS011;2334;48.710;9.622;2023-07-28T01:36:02;7.47;;;4.53;;
4642;SDS011;2334;48.710;9.622;2023-07-28T01:38:29;9.03;;;3.17;;
4642;SDS011;2334;48.710;9.622;2023-07-28T01:40:56;3.43;;;2.77;;
4642;SDS011;2334;48.710;9.622;2023-07-28T01:43:23;4.63;;;2.80;;
4642;SDS011;2334;48.710;9.622;2023-07-28T01:45:52;4.30;;;3.13;;
4642;SDS011;2334;48.710;9.622;2023-07-28T01:48:19;6.47;;;3.23;;
4642;SDS011;2334;48.710;9.622;2023-07-28T01:50:46;3.07;;;2.83;;
4642;SDS011;2334;48.710;9.622;2023-07-28T01:53:12;3.37;;;2.90;;
4642;SDS011;2334;48.710;9.622;2023-07-28T01:55:39;3.33;;;3.03;;
4642;SDS011;2334;48.710;9.622;2023-07-28T01:58:06;5.33;;;3.17;;
4642;SDS011;2334;48.710;9.622;2023-07-28T02:00:34;2.93;;;2.33;;
4642;SDS011;2334;48.710;9.622;2023-07-28T02:03:03;3.50;;;3.10;;
4642;SDS011;2334;48.710;9.622;2023-07-28T02:05:30;2.80;;;2.60;;
4642;SDS011;2334;48.710;9.622;2023-07-28T02:07:57;4.00;;;2.77;;
4642;SDS011;2334;48.710;9.622;2023-07-28T02:10:25;2.80;;;2.60;;
4642;SDS011;2334;48.710;9.622;2023-07-28T02:12:53;3.03;;;2.70;;
4642;SDS011;2334;48.710;9.622;2023-07-28T02:15:19;3.70;;;3.03;;
4642;SDS011;2334;48.710;9.622;2023-07-28T02:17:48;3.90;;;2.60;;
4642;SDS011;2334;48.710;9.622;2023-07-28T02:20:16;8.83;;;3.03;;
4642;SDS011;2334;48.710;9.622;2023-07-28T02:22:43;3.23;;;2.57;;
4642;SDS011;2334;48.710;9.622;2023-07-28T02:25:10;2.90;;;2.60;;
4642;SDS011;2334;48.710;9.622;2023-07-28T02:27:37;10.87;;;3.37;;
4642;SDS011;2334;48.710;9.622;2023-07-28T02:30:05;3.40;;;2.93;;
4642;SDS011;2334;48.710;9.622;2023-07-28T02:32:32;4.00;;;2.63;;
4642;SDS011;2334;48.710;9.622;2023-07-28T02:34:59;3.40;;;2.70;;
4642;SDS011;2334;48.710;9.622;2023-07-28T02:37:28;3.30;;;3.00;;
4642;SDS011;2334;48.710;9.622;2023-07-28T02:39:54;3.77;;;2.70;;
4642;SDS011;2334;48.710;9.622;2023-07-28T02:42:21;2.50;;;2.30;;
4642;SDS011;2334;48.710;9.622;2023-07-28T02:44:50;3.80;;;2.83;;
4642;SDS011;2334;48.710;9.622;2023-07-28T02:47:17;2.97;;;2.60;;
4642;SDS011;2334;48.710;9.622;2023-07-28T02:49:44;3.10;;;2.60;;
4642;SDS011;2334;48.710;9.622;2023-07-28T02:52:11;6.00;;;3.03;;
4642;SDS011;2334;48.710;9.622;2023-07-28T02:54:39;3.23;;;3.00;;
4642;SDS011;2334;48.710;9.622;2023-07-28T02:57:06;6.23;;;3.10;;
4642;SDS011;2334;48.710;9.622;2023-07-28T02:59:33;3.23;;;2.37;;
4642;SDS011;2334;48.710;9.622;2023-07-28T03:02:00;3.83;;;2.80;;
4642;SDS011;2334;48.710;9.622;2023-07-28T03:04:27;4.70;;;2.90;;
4642;SDS011;2334;48.710;9.622;2023-07-28T03:06:53;4.80;;;2.83;;
4642;SDS011;2334;48.710;9.622;2023-07-28T03:09:21;2.93;;;2.67;;
4642;SDS011;2334;48.710;9.622;2023-07-28T03:11:49;2.83;;;2.37;;
4642;SDS011;2334;48.710;9.622;2023-07-28T03:14:16;2.20;;;1.90;;
4642;SDS011;2334;48.710;9.622;2023-07-28T03:16:43;2.40;;;2.20;;
4642;SDS011;2334;48.710;9.622;2023-07-28T03:19:10;2.57;;;2.37;;
4642;SDS011;2334;48.710;9.622;2023-07-28T03:21:37;2.80;;;2.50;;
4642;SDS011;2334;48.710;9.622;2023-07-28T03:24:04;5.23;;;3.10;;
4642;SDS011;2334;48.710;9.622;2023-07-28T03:26:31;2.70;;;2.13;;
4642;SDS011;2334;48.710;9.622;2023-07-28T03:28:59;4.80;;;3.30;;
4642;SDS011;2334;48.710;9.622;2023-07-28T03:31:26;3.87;;;2.90;;
4642;SDS011;2334;48.710;9.622;2023-07-28T03:33:53;4.17;;;2.30;;
4642;SDS011;2334;48.710;9.622;2023-07-28T03:36:20;4.83;;;3.57;;
4642;SDS011;2334;48.710;9.622;2023-07-28T03:38:47;3.13;;;2.60;;
4642;SDS011;2334;48.710;9.622;2023-07-28T03:41:14;5.20;;;3.30;;
4642;SDS011;2334;48.710;9.622;2023-07-28T03:43:41;4.93;;;2.83;;
4642;SDS011;2334;48.710;9.622;2023-07-28T03:46:09;3.33;;;2.87;;
4642;SDS011;2334;48.710;9.622;2023-07-28T03:48:36;4.70;;;2.50;;
4642;SDS011;2334;48.710;9.622;2023-07-28T03:51:03;3.20;;;2.50;;
4642;SDS011;2334;48.710;9.622;2023-07-28T03:53:30;3.77;;;2.70;;
4642;SDS011;2334;48.710;9.622;2023-07-28T03:56:00;4.33;;;3.00;;
4642;SDS011;2334;48.710;9.622;2023-07-28T03:58:26;4.90;;;3.17;;
4642;SDS011;2334;48.710;9.622;2023-07-28T04:00:53;2.97;;;2.50;;
4642;SDS011;2334;48.710;9.622;2023-07-28T04:03:22;5.27;;;3.00;;
4642;SDS011;2334;48.710;9.622;2023-07-28T04:05:48;3.03;;;2.73;;
4642;SDS011;2334;48.710;9.622;2023-07-28T04:08:15;3.00;;;2.80;;
4642;SDS011;2334;48.710;9.622;2023-07-28T04:10:42;8.80;;;4.40;;
4642;SDS011;2334;48.710;9.622;2023-07-28T04:13:09;6.20;;;2.93;;
4642;SDS011;2334;48.710;9.622;2023-07-28T04:15:36;4.07;;;3.10;;
4642;SDS011;2334;48.710;9.622;2023-07-28T04:18:03;5.50;;;2.67;;
4642;SDS011;2334;48.710;9.622;2023-07-28T04:20:31;3.13;;;2.83;;
4642;SDS011;2334;48.710;9.622;2023-07-28T04:22:58;5.30;;;2.70;;
4642;SDS011;2334;48.710;9.622;2023-07-28T04:25:25;4.33;;;2.90;;
4642;SDS011;2334;48.710;9.622;2023-07-28T04:27:51;3.63;;;3.33;;
4642;SDS011;2334;48.710;9.622;2023-07-28T04:30:19;7.03;;;3.30;;
4642;SDS011;2334;48.710;9.622;2023-07-28T04:32:46;5.43;;;3.37;;
4642;SDS011;2334;48.710;9.622;2023-07-28T04:35:13;8.70;;;3.47;;
4642;SDS011;2334;48.710;9.622;2023-07-28T04:37:41;3.40;;;3.10;;
4642;SDS011;2334;48.710;9.622;2023-07-28T04:40:08;7.90;;;3.10;;
4642;SDS011;2334;48.710;9.622;2023-07-28T04:42:35;7.57;;;2.63;;
4642;SDS011;2334;48.710;9.622;2023-07-28T04:45:03;3.00;;;2.80;;
4642;SDS011;2334;48.710;9.622;2023-07-28T04:47:30;8.43;;;3.30;;
4642;SDS011;2334;48.710;9.622;2023-07-28T04:49:57;5.97;;;3.00;;
4642;SDS011;2334;48.710;9.622;2023-07-28T04:52:24;2.70;;;2.47;;
4642;SDS011;2334;48.710;9.622;2023-07-28T04:54:52;3.83;;;3.10;;
4642;SDS011;2334;48.710;9.622;2023-07-28T04:57:19;6.50;;;2.53;;
4642;SDS011;2334;48.710;9.622;2023-07-28T04:59:46;2.97;;;2.70;;
4642;SDS011;2334;48.710;9.622;2023-07-28T05:02:13;7.03;;;2.70;;
4642;SDS011;2334;48.710;9.622;2023-07-28T05:04:40;6.30;;;3.70;;
4642;SDS011;2334;48.710;9.622;2023-07-28T05:07:06;3.20;;;2.90;;
4642;SDS011;2334;48.710;9.622;2023-07-28T05:09:33;3.03;;;2.60;;
4642;SDS011;2334;48.710;9.622;2023-07-28T05:12:02;4.60;;;2.53;;
4642;SDS011;2334;48.710;9.622;2023-07-28T05:14:29;6.90;;;3.20;;
4642;SDS011;2334;48.710;9.622;2023-07-28T05:16:56;6.07;;;2.87;;
4642;SDS011;2334;48.710;9.622;2023-07-28T05:19:23;6.73;;;2.93;;
4642;SDS011;2334;48.710;9.622;2023-07-28T05:21:50;2.90;;;2.70;;
4642;SDS011;2334;48.710;9.622;2023-07-28T05:24:17;3.10;;;2.90;;
4642;SDS011;2334;48.710;9.622;2023-07-28T05:26:44;5.57;;;3.40;;
4642;SDS011;2334;48.710;9.622;2023-07-28T05:29:12;7.93;;;3.20;;
4642;SDS011;2334;48.710;9.622;2023-07-28T05:31:39;4.00;;;3.60;;
4642;SDS011;2334;48.710;9.622;2023-07-28T05:34:05;5.87;;;3.50;;
4642;SDS011;2334;48.710;9.622;2023-07-28T05:36:32;3.27;;;2.97;;
4642;SDS011;2334;48.710;9.622;2023-07-28T05:38:59;5.77;;;3.77;;
4642;SDS011;2334;48.710;9.622;2023-07-28T05:41:26;3.43;;;3.00;;
4642;SDS011;2334;48.710;9.622;2023-07-28T05:43:54;3.80;;;3.37;;
4642;SDS011;2334;48.710;9.622;2023-07-28T05:46:22;4.37;;;2.43;;
4642;SDS011;2334;48.710;9.622;2023-07-28T05:48:49;4.10;;;3.33;;
4642;SDS011;2334;48.710;9.622;2023-07-28T05:51:16;3.53;;;2.90;;
4642;SDS011;2334;48.710;9.622;2023-07-28T05:53:43;3.47;;;2.90;;
4642;SDS011;2334;48.710;9.622;2023-07-28T05:56:10;3.10;;;2.80;;
4642;SDS011;2334;48.710;9.622;2023-07-28T05:58:36;4.03;;;3.63;;
4642;SDS011;2334;48.710;9.622;2023-07-28T06:01:03;3.10;;;2.80;;
4642;SDS011;2334;48.710;9.622;2023-07-28T06:03:32;5.20;;;3.30;;
4642;SDS011;2334;48.710;9.622;2023-07-28T06:05:58;5.77;;;3.57;;
4642;SDS011;2334;48.710;9.622;2023-07-28T06:08:25;3.20;;;2.63;;
4642;SDS011;2334;48.710;9.622;2023-07-28T06:10:52;3.47;;;3.17;;
4642;SDS011;2334;48.710;9.622;2023-07-28T06:13:19;3.03;;;2.83;;
4642;SDS011;2334;48.710;9.622;2023-07-28T06:15:46;3.57;;;2.80;;
4642;SDS011;2334;48.710;9.622;2023-07-28T06:18:13;4.20;;;3.70;;
4642;SDS011;2334;48.710;9.622;2023-07-28T06:20:43;4.57;;;3.63;;
4642;SDS011;2334;48.710;9.622;2023-07-28T06:23:10;5.47;;;3.60;;
4642;SDS011;2334;48.710;9.622;2023-07-28T06:25:37;6.40;;;3.43;;
4642;SDS011;2334;48.710;9.622;2023-07-28T06:28:08;5.47;;;3.40;;
4642;SDS011;2334;48.710;9.622;2023-07-28T06:30:35;5.70;;;3.67;;
4642;SDS011;2334;48.710;9.622;2023-07-28T06:33:02;6.70;;;4.00;;
4642;SDS011;2334;48.710;9.622;2023-07-28T06:35:29;6.50;;;3.47;;
4642;SDS011;2334;48.710;9.622;2023-07-28T06:37:59;5.63;;;4.70;;
4642;SDS011;2334;48.710;9.622;2023-07-28T06:40:28;8.17;;;3.33;;
4642;SDS011;2334;48.710;9.622;2023-07-28T06:42:55;5.50;;;3.50;;
4642;SDS011;2334;48.710;9.622;2023-07-28T06:45:22;4.20;;;3.50;;
4642;SDS011;2334;48.710;9.622;2023-07-28T06:47:49;4.67;;;3.40;;
4642;SDS011;2334;48.710;9.622;2023-07-28T06:50:16;3.93;;;3.13;;
4642;SDS011;2334;48.710;9.622;2023-07-28T06:52:43;4.87;;;3.50;;
4642;SDS011;2334;48.710;9.622;2023-07-28T06:55:11;8.80;;;3.97;;
4642;SDS011;2334;48.710;9.622;2023-07-28T06:57:38;5.40;;;3.73;;
4642;SDS011;2334;48.710;9.622;2023-07-28T07:00:06;3.93;;;3.53;;
4642;SDS011;2334;48.710;9.622;2023-07-28T07:02:34;4.03;;;3.70;;
4642;SDS011;2334;48.710;9.622;2023-07-28T07:05:01;5.50;;;3.17;;
4642;SDS011;2334;48.710;9.622;2023-07-28T07:07:29;8.33;;;4.00;;
4642;SDS011;2334;48.710;9.622;2023-07-28T07:09:56;11.20;;;4.80;;
4642;SDS011;2334;48.710;9.622;2023-07-28T07:12:24;12.03;;;4.60;;
4642;SDS011;2334;48.710;9.622;2023-07-28T07:14:51;9.47;;;5.37;;
4642;SDS011;2334;48.710;9.622;2023-07-28T07:17:18;10.17;;;5.07;;
4642;SDS011;2334;48.710;9.622;2023-07-28T07:19:44;8.37;;;3.97;;
4642;SDS011;2334;48.710;9.622;2023-07-28T07:22:11;5.87;;;4.10;;
4642;SDS011;2334;48.710;9.622;2023-07-28T07:24:38;7.40;;;4.13;;
4642;SDS011;2334;48.710;9.622;2023-07-28T07:27:05;9.70;;;4.67;;
4642;SDS011;2334;48.710;9.622;2023-07-28T07:29:37;6.33;;;4.37;;
4642;SDS011;2334;48.710;9.622;2023-07-28T07:32:04;7.43;;;4.43;;
4642;SDS011;2334;48.710;9.622;2023-07-28T07:34:33;8.70;;;4.23;;
4642;SDS011;2334;48.710;9.622;2023-07-28T07:37:02;10.10;;;4.27;;
4642;SDS011;2334;48.710;9.622;2023-07-28T07:39:29;5.23;;;3.80;;
4642;SDS011;2334;48.710;9.622;2023-07-28T07:41:56;5.53;;;4.10;;
4642;SDS011;2334;48.710;9.622;2023-07-28T07:44:23;7.30;;;5.10;;
4642;SDS011;2334;48.710;9.622;2023-07-28T07:46:51;5.60;;;4.20;;
4642;SDS011;2334;48.710;9.622;2023-07-28T07:49:18;7.97;;;4.10;;
4642;SDS011;2334;48.710;9.622;2023-07-28T07:51:45;4.23;;;3.83;;
4642;SDS011;2334;48.710;9.622;2023-07-28T07:54:12;6.33;;;4.40;;
4642;SDS011;2334;48.710;9.622;2023-07-28T07:56:41;3.90;;;3.50;;
4642;SDS011;2334;48.710;9.622;2023-07-28T07:59:08;4.13;;;3.60;;
4642;SDS011;2334;48.710;9.622;2023-07-28T08:01:35;5.80;;;4.30;;
4642;SDS011;2334;48.710;9.622;2023-07-28T08:04:04;4.33;;;3.50;;
4642;SDS011;2334;48.710;9.622;2023-07-28T08:06:31;5.67;;;3.63;;
4642;SDS011;2334;48.710;9.622;2023-07-28T08:08:58;5.93;;;3.73;;
4642;SDS011;2334;48.710;9.622;2023-07-28T08:11:25;6.43;;;3.53;;
4642;SDS011;2334;48.710;9.622;2023-07-28T08:13:52;5.40;;;3.87;;
4642;SDS011;2334;48.710;9.622;2023-07-28T08:16:20;4.77;;;3.77;;
4642;SDS011;2334;48.710;9.622;2023-07-28T08:18:47;9.60;;;3.67;;
4642;SDS011;2334;48.710;9.622;2023-07-28T08:21:15;6.73;;;4.00;;
4642;SDS011;2334;48.710;9.622;2023-07-28T08:23:42;5.70;;;3.17;;
4642;SDS011;2334;48.710;9.622;2023-07-28T08:26:09;7.47;;;4.07;;
4642;SDS011;2334;48.710;9.622;2023-07-28T08:28:36;4.13;;;3.50;;
4642;SDS011;2334;48.710;9.622;2023-07-28T08:31:03;5.57;;;3.80;;
4642;SDS011;2334;48.710;9.622;2023-07-28T08:33:29;7.27;;;3.53;;
4642;SDS011;2334;48.710;9.622;2023-07-28T08:35:57;6.53;;;3.20;;
4642;SDS011;2334;48.710;9.622;2023-07-28T08:38:25;6.07;;;3.30;;
4642;SDS011;2334;48.710;9.622;2023-07-28T08:40:52;7.37;;;3.70;;
4642;SDS011;2334;48.710;9.622;2023-07-28T08:43:19;4.17;;;3.77;;
4642;SDS011;2334;48.710;9.622;2023-07-28T08:45:46;6.57;;;4.00;;
4642;SDS011;2334;48.710;9.622;2023-07-28T08:48:13;6.20;;;3.93;;
4642;SDS011;2334;48.710;9.622;2023-07-28T08:50:40;5.73;;;3.60;;
4642;SDS011;2334;48.710;9.622;2023-07-28T08:53:07;5.80;;;3.60;;
4642;SDS011;2334;48.710;9.622;2023-07-28T08:55:35;5.67;;;3.60;;
4642;SDS011;2334;48.710;9.622;2023-07-28T08:58:15;3.83;;;3.53;;
4642;SDS011;2334;48.710;9.622;2023-07-28T09:00:42;7.03;;;3.33;;
4642;SDS011;2334;48.710;9.622;2023-07-28T09:03:10;4.40;;;2.90;;
4642;SDS011;2334;48.710;9.622;2023-07-28T09:05:37;3.33;;;3.03;;
4642;SDS011;2334;48.710;9.622;2023-07-28T09:08:05;3.30;;;2.83;;
4642;SDS011;2334;48.710;9.622;2023-07-28T09:10:41;6.73;;;2.87;;
4642;SDS011;2334;48.710;9.622;2023-07-28T09:13:09;3.60;;;2.80;;
4642;SDS011;2334;48.710;9.622;2023-07-28T09:15:37;3.20;;;2.97;;
4642;SDS011;2334;48.710;9.622;2023-07-28T09:18:04;3.70;;;2.70;;
4642;SDS011;2334;48.710;9.622;2023-07-28T09:20:34;4.53;;;2.17;;
4642;SDS011;2334;48.710;9.622;2023-07-28T09:23:02;6.50;;;2.67;;
4642;SDS011;2334;48.710;9.622;2023-07-28T09:25:30;3.20;;;2.40;;
4642;SDS011;2334;48.710;9.622;2023-07-28T09:28:00;3.87;;;3.47;;
4642;SDS011;2334;48.710;9.622;2023-07-28T09:30:27;9.33;;;3.00;;
4642;SDS011;2334;48.710;9.622;2023-07-28T09:33:10;6.70;;;2.80;;
4642;SDS011;2334;48.710;9.622;2023-07-28T09:35:43;3.67;;;3.23;;
4642;SDS011;2334;48.710;9.622;2023-07-28T09:38:14;2.27;;;2.07;;
4642;SDS011;2334;48.710;9.622;2023-07-28T09:40:48;2.70;;;2.50;;
4642;SDS011;2334;48.710;9.622;2023-07-28T09:43:26;5.17;;;3.00;;
4642;SDS011;2334;48.710;9.622;2023-07-28T09:46:09;3.83;;;2.67;;
4642;SDS011;2334;48.710;9.622;2023-07-28T09:48:40;5.03;;;2.87;;
4642;SDS011;2334;48.710;9.622;2023-07-28T09:51:22;3.93;;;3.07;;
4642;SDS011;2334;48.710;9.622;2023-07-28T09:53:56;3.17;;;2.50;;
4642;SDS011;2334;48.710;9.622;2023-07-28T09:56:38;2.47;;;2.27;;
4642;SDS011;2334;48.710;9.622;2023-07-28T10:02:01;2.70;;;2.40;;
4642;SDS011;2334;48.710;9.622;2023-07-28T10:04:33;3.67;;;2.90;;
4642;SDS011;2334;48.710;9.622;2023-07-28T10:07:04;2.57;;;2.37;;
4642;SDS011;2334;48.710;9.622;2023-07-28T10:09:42;3.67;;;2.23;;
4642;SDS011;2334;48.710;9.622;2023-07-28T10:12:23;5.03;;;2.57;;
4642;SDS011;2334;48.710;9.622;2023-07-28T10:15:02;7.40;;;2.63;;
4642;SDS011;2334;48.710;9.622;2023-07-28T10:17:41;2.30;;;2.10;;
4642;SDS011;2334;48.710;9.622;2023-07-28T10:20:30;15.63;;;4.10;;
4642;SDS011;2334;48.710;9.622;2023-07-28T10:23:04;3.17;;;2.20;;
4642;SDS011;2334;48.710;9.622;2023-07-28T10:25:32;2.03;;;1.93;;
4642;SDS011;2334;48.710;9.622;2023-07-28T10:28:01;2.53;;;1.97;;
4642;SDS011;2334;48.710;9.622;2023-07-28T10:30:32;3.83;;;1.97;;
4642;SDS011;2334;48.710;9.622;2023-07-28T10:33:05;2.00;;;1.90;;
4642;SDS011;2334;48.710;9.622;2023-07-28T10:35:32;2.20;;;2.10;;
4642;SDS011;2334;48.710;9.622;2023-07-28T10:41:04;2.77;;;2.40;;
4642;SDS011;2334;48.710;9.622;2023-07-28T10:43:35;3.00;;;2.73;;
4642;SDS011;2334;48.710;9.622;2023-07-28T10:46:05;4.87;;;2.40;;
4642;SDS011;2334;48.710;9.622;2023-07-28T10:48:34;2.27;;;2.00;;
4642;SDS011;2334;48.710;9.622;2023-07-28T10:51:02;3.00;;;2.20;;
4642;SDS011;2334;48.710;9.622;2023-07-28T10:53:29;2.30;;;2.10;;
4642;SDS011;2334;48.710;9.622;2023-07-28T10:55:58;2.53;;;1.67;;
4642;SDS011;2334;48.710;9.622;2023-07-28T10:58:26;2.93;;;2.47;;
4642;SDS011;2334;48.710;9.622;2023-07-28T11:00:53;2.17;;;1.97;;
4642;SDS011;2334;48.710;9.622;2023-07-28T11:03:21;2.27;;;1.77;;
4642;SDS011;2334;48.710;9.622;2023-07-28T11:05:51;4.13;;;2.43;;
4642;SDS011;2334;48.710;9.622;2023-07-28T11:08:21;2.87;;;2.50;;
4642;SDS011;2334;48.710;9.622;2023-07-28T11:10:56;7.83;;;2.13;;
4642;SDS011;2334;48.710;9.622;2023-07-28T11:13:35;6.83;;;2.80;;
4642;SDS011;2334;48.710;9.622;2023-07-28T11:16:06;3.70;;;2.57;;
4642;SDS011;2334;48.710;9.622;2023-07-28T11:18:37;3.63;;;2.17;;
4642;SDS011;2334;48.710;9.622;2023-07-28T11:21:08;2.60;;;2.17;;
4642;SDS011;2334;48.710;9.622;2023-07-28T11:23:44;1.90;;;1.80;;
4642;SDS011;2334;48.710;9.622;2023-07-28T11:26:19;2.67;;;2.47;;
4642;SDS011;2334;48.710;9.622;2023-07-28T11:28:50;2.23;;;2.03;;
4642;SDS011;2334;48.710;9.622;2023-07-28T11:31:22;2.57;;;2.00;;
4642;SDS011;2334;48.710;9.622;2023-07-28T11:33:53;2.40;;;2.13;;
4642;SDS011;2334;48.710;9.622;2023-07-28T11:36:23;1.80;;;1.70;;
4642;SDS011;2334;48.710;9.622;2023-07-28T11:38:50;1.77;;;1.60;;
4642;SDS011;2334;48.710;9.622;2023-07-28T11:41:18;2.17;;;1.97;;
4642;SDS011;2334;48.710;9.622;2023-07-28T11:43:46;2.57;;;1.83;;
4642;SDS011;2334;48.710;9.622;2023-07-28T11:46:32;1.83;;;1.73;;
4642;SDS011;2334;48.710;9.622;2023-07-28T11:49:11;3.20;;;1.97;;
4642;SDS011;2334;48.710;9.622;2023-07-28T11:51:40;3.80;;;2.13;;
4642;SDS011;2334;48.710;9.622;2023-07-28T11:54:08;2.93;;;2.23;;
4642;SDS011;2334;48.710;9.622;2023-07-28T11:56:38;2.23;;;1.70;;
4642;SDS011;2334;48.710;9.622;2023-07-28T11:59:06;12.53;;;2.40;;
4642;SDS011;2334;48.710;9.622;2023-07-28T12:01:33;3.40;;;1.93;;
4642;SDS011;2334;48.710;9.622;2023-07-28T12:07:02;2.20;;;2.10;;
4642;SDS011;2334;48.710;9.622;2023-07-28T12:09:31;2.37;;;1.80;;
4642;SDS011;2334;48.710;9.622;2023-07-28T12:11:59;13.40;;;2.30;;
4642;SDS011;2334;48.710;9.622;2023-07-28T12:14:32;3.53;;;1.63;;
4642;SDS011;2334;48.710;9.622;2023-07-28T12:17:00;1.63;;;1.47;;
4642;SDS011;2334;48.710;9.622;2023-07-28T12:19:36;2.07;;;1.70;;
4642;SDS011;2334;48.710;9.622;2023-07-28T12:22:08;3.07;;;2.10;;
4642;SDS011;2334;48.710;9.622;2023-07-28T12:24:36;4.93;;;2.60;;
4642;SDS011;2334;48.710;9.622;2023-07-28T12:27:04;3.40;;;2.03;;
4642;SDS011;2334;48.710;9.622;2023-07-28T12:29:32;2.20;;;1.77;;
4642;SDS011;2334;48.710;9.622;2023-07-28T12:31:58;4.40;;;2.00;;
4642;SDS011;2334;48.710;9.622;2023-07-28T12:34:25;3.33;;;1.90;;
4642;SDS011;2334;48.710;9.622;2023-07-28T12:36:54;1.87;;;1.53;;
4642;SDS011;2334;48.710;9.622;2023-07-28T12:39:21;1.73;;;1.57;;
4642;SDS011;2334;48.710;9.622;2023-07-28T12:41:48;2.20;;;2.00;;
4642;SDS011;2334;48.710;9.622;2023-07-28T12:44:16;6.60;;;2.23;;
4642;SDS011;2334;48.710;9.622;2023-07-28T12:46:45;5.77;;;2.63;;
4642;SDS011;2334;48.710;9.622;2023-07-28T12:49:12;4.00;;;2.13;;
4642;SDS011;2334;48.710;9.622;2023-07-28T12:51:40;2.70;;;2.20;;
4642;SDS011;2334;48.710;9.622;2023-07-28T12:54:08;8.27;;;2.37;;
4642;SDS011;2334;48.710;9.622;2023-07-28T12:56:35;2.50;;;2.10;;
4642;SDS011;2334;48.710;9.622;2023-07-28T12:59:02;2.70;;;2.50;;
4642;SDS011;2334;48.710;9.622;2023-07-28T13:01:29;4.60;;;2.60;;
4642;SDS011;2334;48.710;9.622;2023-07-28T13:03:56;5.40;;;2.60;;
4642;SDS011;2334;48.710;9.622;2023-07-28T13:06:23;2.80;;;2.17;;
4642;SDS011;2334;48.710;9.622;2023-07-28T13:08:50;4.40;;;2.57;;
4642;SDS011;2334;48.710;9.622;2023-07-28T13:11:18;3.57;;;3.27;;
4642;SDS011;2334;48.710;9.622;2023-07-28T13:13:45;4.30;;;2.97;;
4642;SDS011;2334;48.710;9.622;2023-07-28T13:16:12;5.07;;;2.70;;
4642;SDS011;2334;48.710;9.622;2023-07-28T13:18:39;3.60;;;2.87;;
4642;SDS011;2334;48.710;9.622;2023-07-28T13:21:06;5.87;;;3.00;;
4642;SDS011;2334;48.710;9.622;2023-07-28T13:23:33;3.77;;;2.40;;
4642;SDS011;2334;48.710;9.622;2023-07-28T13:26:00;2.70;;;2.50;;
4642;SDS011;2334;48.710;9.622;2023-07-28T13:28:30;5.70;;;3.40;;
4642;SDS011;2334;48.710;9.622;2023-07-28T13:30:57;5.10;;;3.73;;
4642;SDS011;2334;48.710;9.622;2023-07-28T13:33:24;6.60;;;3.10;;
4642;SDS011;2334;48.710;9.622;2023-07-28T13:35:52;2.77;;;2.50;;
4642;SDS011;2334;48.710;9.622;2023-07-28T13:38:19;3.83;;;2.70;;
4642;SDS011;2334;48.710;9.622;2023-07-28T13:40:45;6.53;;;2.47;;
4642;SDS011;2334;48.710;9.622;2023-07-28T13:43:12;3.53;;;2.63;;
4642;SDS011;2334;48.710;9.622;2023-07-28T13:45:41;3.97;;;2.80;;
4642;SDS011;2334;48.710;9.622;2023-07-28T13:48:08;3.80;;;2.90;;
4642;SDS011;2334;48.710;9.622;2023-07-28T13:50:35;6.73;;;3.00;;
4642;SDS011;2334;48.710;9.622;2023-07-28T13:53:01;4.10;;;2.70;;
4642;SDS011;2334;48.710;9.622;2023-07-28T13:55:28;3.77;;;3.40;;
4642;SDS011;2334;48.710;9.622;2023-07-28T13:57:55;4.03;;;3.10;;
4642;SDS011;2334;48.710;9.622;2023-07-28T14:00:22;4.83;;;3.60;;
4642;SDS011;2334;48.710;9.622;2023-07-28T14:02:51;4.00;;;3.33;;
4642;SDS011;2334;48.710;9.622;2023-07-28T14:05:18;2.80;;;2.50;;
4642;SDS011;2334;48.710;9.622;2023-07-28T14:07:45;4.27;;;2.83;;
4642;SDS011;2334;48.710;9.622;2023-07-28T14:10:12;9.00;;;3.87;;
4642;SDS011;2334;48.710;9.622;2023-07-28T14:12:39;4.53;;;3.00;;
4642;SDS011;2334;48.710;9.622;2023-07-28T14:15:07;4.40;;;2.77;;
4642;SDS011;2334;48.710;9.622;2023-07-28T14:17:34;5.60;;;3.47;;
4642;SDS011;2334;48.710;9.622;2023-07-28T14:20:03;2.57;;;2.33;;
4642;SDS011;2334;48.710;9.622;2023-07-28T14:22:31;2.53;;;2.10;;
4642;SDS011;2334;48.710;9.622;2023-07-28T14:24:58;3.10;;;2.50;;
4642;SDS011;2334;48.710;9.622;2023-07-28T14:27:25;6.13;;;3.63;;
4642;SDS011;2334;48.710;9.622;2023-07-28T14:29:52;3.57;;;2.60;;
4642;SDS011;2334;48.710;9.622;2023-07-28T14:32:18;4.63;;;3.07;;
4642;SDS011;2334;48.710;9.622;2023-07-28T14:34:45;5.53;;;3.37;;
4642;SDS011;2334;48.710;9.622;2023-07-28T14:37:14;3.87;;;3.00;;
4642;SDS011;2334;48.710;9.622;2023-07-28T14:39:41;2.87;;;2.57;;
4642;SDS011;2334;48.710;9.622;2023-07-28T14:42:08;6.97;;;2.83;;
4642;SDS011;2334;48.710;9.622;2023-07-28T14:44:35;6.93;;;3.10;;
4642;SDS011;2334;48.710;9.622;2023-07-28T14:47:02;4.10;;;3.17;;
4642;SDS011;2334;48.710;9.622;2023-07-28T14:49:30;5.30;;;3.07;;
4642;SDS011;2334;48.710;9.622;2023-07-28T14:51:56;4.30;;;2.47;;
4642;SDS011;2334;48.710;9.622;2023-07-28T14:54:25;2.87;;;2.43;;
4642;SDS011;2334;48.710;9.622;2023-07-28T14:56:52;4.37;;;2.73;;
4642;SDS011;2334;48.710;9.622;2023-07-28T14:59:19;3.53;;;2.70;;
4642;SDS011;2334;48.710;9.622;2023-07-28T15:01:45;3.67;;;2.77;;
4642;SDS011;2334;48.710;9.622;2023-07-28T15:04:12;4.03;;;3.10;;
4642;SDS011;2334;48.710;9.622;2023-07-28T15:06:40;6.63;;;3.03;;
4642;SDS011;2334;48.710;9.622;2023-07-28T15:09:07;2.87;;;2.63;;
4642;SDS011;2334;48.710;9.622;2023-07-28T15:11:35;5.83;;;2.60;;
4642;SDS011;2334;48.710;9.622;2023-07-28T15:14:02;4.67;;;3.30;;
4642;SDS011;2334;48.710;9.622;2023-07-28T15:16:30;4.33;;;2.60;;
4642;SDS011;2334;48.710;9.622;2023-07-28T15:18:57;4.43;;;3.13;;
4642;SDS011;2334;48.710;9.622;2023-07-28T15:21:24;3.40;;;2.40;;
4642;SDS011;2334;48.710;9.622;2023-07-28T15:23:55;2.50;;;2.30;;
4642;SDS011;2334;48.710;9.622;2023-07-28T15:26:22;2.23;;;1.80;;
4642;SDS011;2334;48.710;9.622;2023-07-28T15:28:50;2.93;;;2.70;;
4642;SDS011;2334;48.710;9.622;2023-07-28T15:31:17;2.57;;;2.40;;